LPPD/PDL METAR and TAF weather

Enter ICAO airport designator
Station Type Date Time Source
LPPD METAR 2019/02/20 23:30 UTC NOAA

LPPD 202330Z 20011KT 9999 FEW006 SCT011 14/10 Q1000


Station Type Date Time Source
LPPD Decoded METAR 2019/02/20 23:30 UTC NOAA

Ponta Delgada / Nordela Acores , Portugal (LPPD) 37-44N 025-42W 72M
Feb 20, 2019 - 06:30 PM EST / 2019.02.20 2330 UTC
Wind: from the SSW (200 degrees) at 13 MPH (11 KT):0
Visibility: greater than 7 mile(s):0
Sky conditions: partly cloudy
Temperature: 57 F (14 C)
Dew Point: 50 F (10 C)
Relative Humidity: 76%
Pressure (altimeter): 29.53 in. Hg (1000 hPa)
ob: LPPD 202330Z 20011KT 9999 FEW006 SCT011 14/10 Q1000
cycle: 23

Station Type Date Time Source
LPPD TAF 2019/02/20 18:18 UTC NOAA

TAF LPPD 201700Z 2018/2118 26012KT 9999 FEW015 BKN040
TEMPO 2018/2118 5000 SHRA SCT008 BKN015 FEW018CB
BECMG 2102/2105 22020G30KT
TEMPO 2105/2118 22028G38KT


Example: see airport list